sensor_id;sensor_type;location;lat;lon;timestamp;P1;durP1;ratioP1;P2;durP2;ratioP2
81523;SDS011;70954;49.500;10.416;2023-08-30T00:01:55;1.35;;;1.25;;
81523;SDS011;70954;49.500;10.416;2023-08-30T00:04:21;1.58;;;1.40;;
81523;SDS011;70954;49.500;10.416;2023-08-30T00:06:46;1.35;;;1.25;;
81523;SDS011;70954;49.500;10.416;2023-08-30T00:09:12;1.50;;;1.40;;
81523;SDS011;70954;49.500;10.416;2023-08-30T00:11:37;1.20;;;1.10;;
81523;SDS011;70954;49.500;10.416;2023-08-30T00:14:03;1.38;;;1.27;;
81523;SDS011;70954;49.500;10.416;2023-08-30T00:16:30;2.92;;;1.40;;
81523;SDS011;70954;49.500;10.416;2023-08-30T00:18:56;1.25;;;1.10;;
81523;SDS011;70954;49.500;10.416;2023-08-30T00:21:21;1.80;;;1.50;;
81523;SDS011;70954;49.500;10.416;2023-08-30T00:23:47;2.13;;;1.35;;
81523;SDS011;70954;49.500;10.416;2023-08-30T00:26:12;1.45;;;1.30;;
81523;SDS011;70954;49.500;10.416;2023-08-30T00:28:38;1.55;;;1.38;;
81523;SDS011;70954;49.500;10.416;2023-08-30T00:31:03;1.70;;;1.23;;
81523;SDS011;70954;49.500;10.416;2023-08-30T00:33:29;2.30;;;1.27;;
81523;SDS011;70954;49.500;10.416;2023-08-30T00:35:56;1.50;;;1.30;;
81523;SDS011;70954;49.500;10.416;2023-08-30T00:38:25;1.85;;;1.27;;
81523;SDS011;70954;49.500;10.416;2023-08-30T00:40:52;2.47;;;1.30;;
81523;SDS011;70954;49.500;10.416;2023-08-30T00:43:17;1.75;;;1.30;;
81523;SDS011;70954;49.500;10.416;2023-08-30T00:45:43;1.80;;;1.35;;
81523;SDS011;70954;49.500;10.416;2023-08-30T00:48:09;1.42;;;1.33;;
81523;SDS011;70954;49.500;10.416;2023-08-30T00:50:35;1.73;;;1.50;;
81523;SDS011;70954;49.500;10.416;2023-08-30T00:53:02;1.70;;;1.60;;
81523;SDS011;70954;49.500;10.416;2023-08-30T00:55:28;1.70;;;1.60;;
81523;SDS011;70954;49.500;10.416;2023-08-30T00:57:53;1.60;;;1.50;;
81523;SDS011;70954;49.500;10.416;2023-08-30T01:00:19;1.45;;;1.33;;
81523;SDS011;70954;49.500;10.416;2023-08-30T01:02:44;1.60;;;1.48;;
81523;SDS011;70954;49.500;10.416;2023-08-30T01:05:10;1.40;;;1.25;;
81523;SDS011;70954;49.500;10.416;2023-08-30T01:07:35;2.38;;;1.67;;
81523;SDS011;70954;49.500;10.416;2023-08-30T01:10:01;1.92;;;1.42;;
81523;SDS011;70954;49.500;10.416;2023-08-30T01:12:29;1.77;;;1.52;;
81523;SDS011;70954;49.500;10.416;2023-08-30T01:15:05;1.98;;;1.40;;
81523;SDS011;70954;49.500;10.416;2023-08-30T01:17:36;1.70;;;1.60;;
81523;SDS011;70954;49.500;10.416;2023-08-30T01:20:05;1.77;;;1.50;;
81523;SDS011;70954;49.500;10.416;2023-08-30T01:27:58;2.85;;;1.60;;
81523;SDS011;70954;49.500;10.416;2023-08-30T01:30:26;1.70;;;1.60;;
81523;SDS011;70954;49.500;10.416;2023-08-30T01:32:53;1.60;;;1.50;;
81523;SDS011;70954;49.500;10.416;2023-08-30T01:35:18;1.60;;;1.50;;
81523;SDS011;70954;49.500;10.416;2023-08-30T01:37:45;3.15;;;1.60;;
81523;SDS011;70954;49.500;10.416;2023-08-30T01:40:11;2.13;;;1.63;;
81523;SDS011;70954;49.500;10.416;2023-08-30T01:42:40;1.70;;;1.60;;
81523;SDS011;70954;49.500;10.416;2023-08-30T01:45:06;2.40;;;2.00;;
81523;SDS011;70954;49.500;10.416;2023-08-30T01:47:35;1.95;;;1.75;;
81523;SDS011;70954;49.500;10.416;2023-08-30T01:50:01;2.28;;;1.80;;
81523;SDS011;70954;49.500;10.416;2023-08-30T01:52:28;2.20;;;1.92;;
81523;SDS011;70954;49.500;10.416;2023-08-30T01:54:53;2.17;;;1.92;;
81523;SDS011;70954;49.500;10.416;2023-08-30T01:57:19;3.00;;;2.67;;
81523;SDS011;70954;49.500;10.416;2023-08-30T01:59:44;3.13;;;2.35;;
81523;SDS011;70954;49.500;10.416;2023-08-30T02:02:10;3.10;;;2.72;;
81523;SDS011;70954;49.500;10.416;2023-08-30T02:04:35;3.22;;;2.72;;
81523;SDS011;70954;49.500;10.416;2023-08-30T02:07:04;3.78;;;3.00;;
81523;SDS011;70954;49.500;10.416;2023-08-30T02:09:39;4.03;;;3.20;;
81523;SDS011;70954;49.500;10.416;2023-08-30T02:12:14;3.47;;;3.03;;
81523;SDS011;70954;49.500;10.416;2023-08-30T02:14:43;4.68;;;3.17;;
81523;SDS011;70954;49.500;10.416;2023-08-30T02:17:12;5.25;;;3.30;;
81523;SDS011;70954;49.500;10.416;2023-08-30T02:19:39;4.32;;;3.17;;
81523;SDS011;70954;49.500;10.416;2023-08-30T02:22:05;4.03;;;3.22;;
81523;SDS011;70954;49.500;10.416;2023-08-30T02:24:30;4.55;;;3.28;;
81523;SDS011;70954;49.500;10.416;2023-08-30T02:26:56;5.25;;;3.33;;
81523;SDS011;70954;49.500;10.416;2023-08-30T02:29:21;4.63;;;3.67;;
81523;SDS011;70954;49.500;10.416;2023-08-30T02:31:46;5.28;;;3.75;;
81523;SDS011;70954;49.500;10.416;2023-08-30T02:34:12;4.00;;;3.20;;
81523;SDS011;70954;49.500;10.416;2023-08-30T02:36:37;4.15;;;3.28;;
81523;SDS011;70954;49.500;10.416;2023-08-30T02:39:03;4.88;;;3.80;;
81523;SDS011;70954;49.500;10.416;2023-08-30T02:41:29;4.45;;;3.33;;
81523;SDS011;70954;49.500;10.416;2023-08-30T02:43:54;4.80;;;3.83;;
81523;SDS011;70954;49.500;10.416;2023-08-30T02:46:20;5.15;;;3.85;;
81523;SDS011;70954;49.500;10.416;2023-08-30T02:48:45;4.45;;;3.60;;
81523;SDS011;70954;49.500;10.416;2023-08-30T02:51:11;5.20;;;3.50;;
81523;SDS011;70954;49.500;10.416;2023-08-30T02:53:36;4.13;;;3.25;;
81523;SDS011;70954;49.500;10.416;2023-08-30T02:56:02;4.30;;;3.70;;
81523;SDS011;70954;49.500;10.416;2023-08-30T02:58:27;4.57;;;3.55;;
81523;SDS011;70954;49.500;10.416;2023-08-30T03:00:53;5.25;;;3.80;;
81523;SDS011;70954;49.500;10.416;2023-08-30T03:03:18;4.75;;;3.70;;
81523;SDS011;70954;49.500;10.416;2023-08-30T03:05:44;5.70;;;3.70;;
81523;SDS011;70954;49.500;10.416;2023-08-30T03:08:09;4.60;;;3.30;;
81523;SDS011;70954;49.500;10.416;2023-08-30T03:10:34;5.78;;;3.67;;
81523;SDS011;70954;49.500;10.416;2023-08-30T03:13:00;6.00;;;3.45;;
81523;SDS011;70954;49.500;10.416;2023-08-30T03:15:25;3.63;;;3.15;;
81523;SDS011;70954;49.500;10.416;2023-08-30T03:17:51;4.10;;;3.42;;
81523;SDS011;70954;49.500;10.416;2023-08-30T03:20:16;4.80;;;3.60;;
81523;SDS011;70954;49.500;10.416;2023-08-30T03:22:42;5.40;;;3.40;;
81523;SDS011;70954;49.500;10.416;2023-08-30T03:25:07;4.50;;;3.42;;
81523;SDS011;70954;49.500;10.416;2023-08-30T03:27:33;6.60;;;3.90;;
81523;SDS011;70954;49.500;10.416;2023-08-30T03:29:58;5.13;;;3.63;;
81523;SDS011;70954;49.500;10.416;2023-08-30T03:32:24;5.07;;;3.95;;
81523;SDS011;70954;49.500;10.416;2023-08-30T03:34:49;4.35;;;3.40;;
81523;SDS011;70954;49.500;10.416;2023-08-30T03:37:15;4.50;;;3.58;;
81523;SDS011;70954;49.500;10.416;2023-08-30T03:39:41;4.70;;;3.80;;
81523;SDS011;70954;49.500;10.416;2023-08-30T03:42:07;5.70;;;3.95;;
81523;SDS011;70954;49.500;10.416;2023-08-30T03:44:32;6.18;;;3.83;;
81523;SDS011;70954;49.500;10.416;2023-08-30T03:46:58;5.03;;;3.72;;
81523;SDS011;70954;49.500;10.416;2023-08-30T03:49:24;5.70;;;3.97;;
81523;SDS011;70954;49.500;10.416;2023-08-30T03:51:49;5.40;;;4.20;;
81523;SDS011;70954;49.500;10.416;2023-08-30T03:54:15;5.10;;;3.88;;
81523;SDS011;70954;49.500;10.416;2023-08-30T03:56:40;6.00;;;4.45;;
81523;SDS011;70954;49.500;10.416;2023-08-30T03:59:05;6.95;;;3.97;;
81523;SDS011;70954;49.500;10.416;2023-08-30T04:01:31;6.45;;;4.07;;
81523;SDS011;70954;49.500;10.416;2023-08-30T04:03:56;5.15;;;3.85;;
81523;SDS011;70954;49.500;10.416;2023-08-30T04:06:22;5.20;;;3.95;;
81523;SDS011;70954;49.500;10.416;2023-08-30T04:08:47;5.63;;;3.75;;
81523;SDS011;70954;49.500;10.416;2023-08-30T04:11:13;4.32;;;3.70;;
81523;SDS011;70954;49.500;10.416;2023-08-30T04:13:38;5.22;;;3.42;;
81523;SDS011;70954;49.500;10.416;2023-08-30T04:16:04;4.57;;;3.45;;
81523;SDS011;70954;49.500;10.416;2023-08-30T04:18:29;4.85;;;3.50;;
81523;SDS011;70954;49.500;10.416;2023-08-30T04:20:56;4.32;;;3.60;;
81523;SDS011;70954;49.500;10.416;2023-08-30T04:23:23;3.97;;;3.25;;
81523;SDS011;70954;49.500;10.416;2023-08-30T04:25:48;4.70;;;3.67;;
81523;SDS011;70954;49.500;10.416;2023-08-30T04:28:14;5.90;;;3.67;;
81523;SDS011;70954;49.500;10.416;2023-08-30T04:30:39;5.18;;;3.83;;
81523;SDS011;70954;49.500;10.416;2023-08-30T04:33:05;5.30;;;4.03;;
81523;SDS011;70954;49.500;10.416;2023-08-30T04:35:31;5.40;;;4.25;;
81523;SDS011;70954;49.500;10.416;2023-08-30T04:37:58;4.95;;;3.80;;
81523;SDS011;70954;49.500;10.416;2023-08-30T04:40:24;6.50;;;4.28;;
81523;SDS011;70954;49.500;10.416;2023-08-30T04:42:49;6.88;;;3.80;;
81523;SDS011;70954;49.500;10.416;2023-08-30T04:45:15;6.10;;;4.20;;
81523;SDS011;70954;49.500;10.416;2023-08-30T04:47:40;5.70;;;4.22;;
81523;SDS011;70954;49.500;10.416;2023-08-30T04:50:06;5.40;;;4.13;;
81523;SDS011;70954;49.500;10.416;2023-08-30T04:52:31;4.28;;;3.70;;
81523;SDS011;70954;49.500;10.416;2023-08-30T04:54:57;6.53;;;4.35;;
81523;SDS011;70954;49.500;10.416;2023-08-30T04:57:23;5.20;;;4.10;;
81523;SDS011;70954;49.500;10.416;2023-08-30T04:59:48;6.00;;;4.22;;
81523;SDS011;70954;49.500;10.416;2023-08-30T05:02:14;7.50;;;4.47;;
81523;SDS011;70954;49.500;10.416;2023-08-30T05:04:39;7.18;;;3.95;;
81523;SDS011;70954;49.500;10.416;2023-08-30T05:07:05;6.05;;;4.22;;
81523;SDS011;70954;49.500;10.416;2023-08-30T05:09:30;4.57;;;3.33;;
81523;SDS011;70954;49.500;10.416;2023-08-30T05:11:56;4.70;;;3.13;;
81523;SDS011;70954;49.500;10.416;2023-08-30T05:14:22;5.25;;;3.60;;
81523;SDS011;70954;49.500;10.416;2023-08-30T05:16:48;5.70;;;3.65;;
81523;SDS011;70954;49.500;10.416;2023-08-30T05:19:15;4.03;;;3.30;;
81523;SDS011;70954;49.500;10.416;2023-08-30T05:21:40;4.10;;;3.28;;
81523;SDS011;70954;49.500;10.416;2023-08-30T05:24:06;3.97;;;3.17;;
81523;SDS011;70954;49.500;10.416;2023-08-30T05:26:31;4.50;;;3.33;;
81523;SDS011;70954;49.500;10.416;2023-08-30T05:28:56;4.15;;;3.20;;
81523;SDS011;70954;49.500;10.416;2023-08-30T05:31:22;4.78;;;3.55;;
81523;SDS011;70954;49.500;10.416;2023-08-30T05:33:47;3.65;;;2.95;;
81523;SDS011;70954;49.500;10.416;2023-08-30T05:36:13;5.45;;;3.47;;
81523;SDS011;70954;49.500;10.416;2023-08-30T05:38:38;4.80;;;3.05;;
81523;SDS011;70954;49.500;10.416;2023-08-30T05:41:04;4.55;;;3.50;;
81523;SDS011;70954;49.500;10.416;2023-08-30T05:43:29;5.88;;;4.25;;
81523;SDS011;70954;49.500;10.416;2023-08-30T05:45:55;5.68;;;4.13;;
81523;SDS011;70954;49.500;10.416;2023-08-30T05:48:20;4.97;;;3.38;;
81523;SDS011;70954;49.500;10.416;2023-08-30T05:50:45;5.10;;;4.20;;
81523;SDS011;70954;49.500;10.416;2023-08-30T05:53:11;6.47;;;3.80;;
81523;SDS011;70954;49.500;10.416;2023-08-30T05:55:36;5.47;;;3.85;;
81523;SDS011;70954;49.500;10.416;2023-08-30T05:58:02;5.13;;;4.30;;
81523;SDS011;70954;49.500;10.416;2023-08-30T06:00:28;7.35;;;4.47;;
81523;SDS011;70954;49.500;10.416;2023-08-30T06:02:54;5.70;;;4.30;;
81523;SDS011;70954;49.500;10.416;2023-08-30T06:05:19;6.05;;;4.22;;
81523;SDS011;70954;49.500;10.416;2023-08-30T06:07:44;7.00;;;4.68;;
81523;SDS011;70954;49.500;10.416;2023-08-30T06:10:10;7.65;;;4.70;;
81523;SDS011;70954;49.500;10.416;2023-08-30T06:12:35;6.57;;;4.95;;
81523;SDS011;70954;49.500;10.416;2023-08-30T06:15:01;6.47;;;4.50;;
81523;SDS011;70954;49.500;10.416;2023-08-30T06:17:27;7.35;;;5.10;;
81523;SDS011;70954;49.500;10.416;2023-08-30T06:19:52;8.18;;;5.22;;
81523;SDS011;70954;49.500;10.416;2023-08-30T06:22:18;10.13;;;5.57;;
81523;SDS011;70954;49.500;10.416;2023-08-30T06:24:43;9.45;;;6.35;;
81523;SDS011;70954;49.500;10.416;2023-08-30T06:27:09;8.02;;;5.57;;
81523;SDS011;70954;49.500;10.416;2023-08-30T06:29:34;11.05;;;6.43;;
81523;SDS011;70954;49.500;10.416;2023-08-30T06:32:00;12.13;;;6.70;;
81523;SDS011;70954;49.500;10.416;2023-08-30T06:34:25;13.88;;;6.65;;
81523;SDS011;70954;49.500;10.416;2023-08-30T06:36:50;9.05;;;6.15;;
81523;SDS011;70954;49.500;10.416;2023-08-30T06:39:19;11.70;;;7.68;;
81523;SDS011;70954;49.500;10.416;2023-08-30T06:41:44;10.60;;;7.13;;
81523;SDS011;70954;49.500;10.416;2023-08-30T06:44:10;11.75;;;7.20;;
81523;SDS011;70954;49.500;10.416;2023-08-30T06:46:35;11.73;;;7.53;;
81523;SDS011;70954;49.500;10.416;2023-08-30T06:49:00;13.15;;;8.13;;
81523;SDS011;70954;49.500;10.416;2023-08-30T06:51:26;12.50;;;7.43;;
81523;SDS011;70954;49.500;10.416;2023-08-30T06:53:51;12.05;;;7.63;;
81523;SDS011;70954;49.500;10.416;2023-08-30T06:56:18;10.65;;;7.32;;
81523;SDS011;70954;49.500;10.416;2023-08-30T06:58:44;11.90;;;7.93;;
81523;SDS011;70954;49.500;10.416;2023-08-30T07:01:09;12.57;;;7.57;;
81523;SDS011;70954;49.500;10.416;2023-08-30T07:03:35;11.10;;;7.40;;
81523;SDS011;70954;49.500;10.416;2023-08-30T07:06:00;10.40;;;6.57;;
81523;SDS011;70954;49.500;10.416;2023-08-30T07:08:25;9.13;;;6.60;;
81523;SDS011;70954;49.500;10.416;2023-08-30T07:10:51;11.65;;;6.65;;
81523;SDS011;70954;49.500;10.416;2023-08-30T07:13:16;8.65;;;5.75;;
81523;SDS011;70954;49.500;10.416;2023-08-30T07:15:42;9.25;;;6.47;;
81523;SDS011;70954;49.500;10.416;2023-08-30T07:18:08;10.85;;;7.18;;
81523;SDS011;70954;49.500;10.416;2023-08-30T07:20:34;9.85;;;6.47;;
81523;SDS011;70954;49.500;10.416;2023-08-30T07:23:00;10.38;;;6.78;;
81523;SDS011;70954;49.500;10.416;2023-08-30T07:25:26;10.40;;;6.28;;
81523;SDS011;70954;49.500;10.416;2023-08-30T07:27:51;8.43;;;6.40;;
81523;SDS011;70954;49.500;10.416;2023-08-30T07:30:17;9.38;;;6.32;;
81523;SDS011;70954;49.500;10.416;2023-08-30T07:32:42;7.85;;;5.65;;
81523;SDS011;70954;49.500;10.416;2023-08-30T07:35:08;9.88;;;6.15;;
81523;SDS011;70954;49.500;10.416;2023-08-30T07:37:34;7.22;;;4.78;;
81523;SDS011;70954;49.500;10.416;2023-08-30T07:40:00;8.02;;;6.10;;
81523;SDS011;70954;49.500;10.416;2023-08-30T07:42:26;8.00;;;5.90;;
81523;SDS011;70954;49.500;10.416;2023-08-30T07:44:51;7.22;;;5.60;;
81523;SDS011;70954;49.500;10.416;2023-08-30T07:47:17;8.10;;;5.78;;
81523;SDS011;70954;49.500;10.416;2023-08-30T07:49:42;6.15;;;4.97;;
81523;SDS011;70954;49.500;10.416;2023-08-30T07:52:08;7.25;;;4.85;;
81523;SDS011;70954;49.500;10.416;2023-08-30T07:54:33;7.28;;;5.05;;
81523;SDS011;70954;49.500;10.416;2023-08-30T07:56:59;6.90;;;5.28;;
81523;SDS011;70954;49.500;10.416;2023-08-30T07:59:24;6.25;;;4.80;;
81523;SDS011;70954;49.500;10.416;2023-08-30T08:01:50;8.38;;;5.70;;
81523;SDS011;70954;49.500;10.416;2023-08-30T08:04:16;8.88;;;6.18;;
81523;SDS011;70954;49.500;10.416;2023-08-30T08:06:41;5.88;;;4.85;;
81523;SDS011;70954;49.500;10.416;2023-08-30T08:09:07;7.57;;;5.22;;
81523;SDS011;70954;49.500;10.416;2023-08-30T08:11:32;5.72;;;4.53;;
81523;SDS011;70954;49.500;10.416;2023-08-30T08:13:58;6.63;;;5.32;;
81523;SDS011;70954;49.500;10.416;2023-08-30T08:16:23;7.03;;;5.68;;
81523;SDS011;70954;49.500;10.416;2023-08-30T08:18:48;6.65;;;5.47;;
81523;SDS011;70954;49.500;10.416;2023-08-30T08:21:14;6.88;;;4.65;;
81523;SDS011;70954;49.500;10.416;2023-08-30T08:23:39;6.22;;;4.82;;
81523;SDS011;70954;49.500;10.416;2023-08-30T08:26:05;6.53;;;5.35;;
81523;SDS011;70954;49.500;10.416;2023-08-30T08:28:30;8.30;;;4.90;;
81523;SDS011;70954;49.500;10.416;2023-08-30T08:30:56;6.05;;;4.82;;
81523;SDS011;70954;49.500;10.416;2023-08-30T08:33:21;7.20;;;5.80;;
81523;SDS011;70954;49.500;10.416;2023-08-30T08:35:47;5.85;;;4.63;;
81523;SDS011;70954;49.500;10.416;2023-08-30T08:38:13;6.75;;;5.32;;
81523;SDS011;70954;49.500;10.416;2023-08-30T08:40:39;5.90;;;4.72;;
81523;SDS011;70954;49.500;10.416;2023-08-30T08:43:04;5.35;;;4.68;;
81523;SDS011;70954;49.500;10.416;2023-08-30T08:45:31;6.45;;;4.85;;
81523;SDS011;70954;49.500;10.416;2023-08-30T08:47:59;5.40;;;4.78;;
81523;SDS011;70954;49.500;10.416;2023-08-30T08:50:29;5.10;;;4.55;;
81523;SDS011;70954;49.500;10.416;2023-08-30T08:52:54;5.80;;;4.53;;
81523;SDS011;70954;49.500;10.416;2023-08-30T08:55:21;5.25;;;4.22;;
81523;SDS011;70954;49.500;10.416;2023-08-30T08:57:47;6.78;;;4.72;;
81523;SDS011;70954;49.500;10.416;2023-08-30T09:00:13;6.03;;;4.65;;
81523;SDS011;70954;49.500;10.416;2023-08-30T09:02:39;6.32;;;5.07;;
81523;SDS011;70954;49.500;10.416;2023-08-30T09:05:06;6.55;;;5.18;;
81523;SDS011;70954;49.500;10.416;2023-08-30T09:07:32;6.95;;;4.95;;
81523;SDS011;70954;49.500;10.416;2023-08-30T09:09:58;6.38;;;5.10;;
81523;SDS011;70954;49.500;10.416;2023-08-30T09:12:24;5.93;;;4.85;;
81523;SDS011;70954;49.500;10.416;2023-08-30T09:14:56;6.57;;;5.22;;
81523;SDS011;70954;49.500;10.416;2023-08-30T09:17:21;4.78;;;4.22;;
81523;SDS011;70954;49.500;10.416;2023-08-30T09:19:47;4.53;;;4.00;;
81523;SDS011;70954;49.500;10.416;2023-08-30T09:22:12;5.80;;;4.68;;
81523;SDS011;70954;49.500;10.416;2023-08-30T09:24:38;5.32;;;4.40;;
81523;SDS011;70954;49.500;10.416;2023-08-30T09:27:04;5.07;;;4.38;;
81523;SDS011;70954;49.500;10.416;2023-08-30T09:29:29;5.38;;;4.35;;
81523;SDS011;70954;49.500;10.416;2023-08-30T09:31:55;5.07;;;4.50;;
81523;SDS011;70954;49.500;10.416;2023-08-30T09:34:24;4.80;;;4.00;;
81523;SDS011;70954;49.500;10.416;2023-08-30T09:36:50;3.70;;;3.15;;
81523;SDS011;70954;49.500;10.416;2023-08-30T09:39:15;5.30;;;4.53;;
81523;SDS011;70954;49.500;10.416;2023-08-30T09:41:45;6.10;;;4.78;;
81523;SDS011;70954;49.500;10.416;2023-08-30T09:44:12;5.38;;;4.57;;
81523;SDS011;70954;49.500;10.416;2023-08-30T09:46:41;6.55;;;4.55;;
81523;SDS011;70954;49.500;10.416;2023-08-30T09:49:18;5.35;;;3.88;;
81523;SDS011;70954;49.500;10.416;2023-08-30T09:51:52;4.75;;;3.75;;
81523;SDS011;70954;49.500;10.416;2023-08-30T09:54:19;5.82;;;4.93;;
81523;SDS011;70954;49.500;10.416;2023-08-30T09:56:49;6.43;;;4.38;;
81523;SDS011;70954;49.500;10.416;2023-08-30T09:59:14;5.10;;;4.60;;
81523;SDS011;70954;49.500;10.416;2023-08-30T10:01:40;4.65;;;4.18;;
81523;SDS011;70954;49.500;10.416;2023-08-30T10:04:07;5.47;;;4.80;;
81523;SDS011;70954;49.500;10.416;2023-08-30T10:06:33;5.53;;;4.63;;
81523;SDS011;70954;49.500;10.416;2023-08-30T10:08:59;5.38;;;4.75;;
81523;SDS011;70954;49.500;10.416;2023-08-30T10:11:26;5.93;;;5.30;;
81523;SDS011;70954;49.500;10.416;2023-08-30T10:13:53;5.45;;;4.88;;
81523;SDS011;70954;49.500;10.416;2023-08-30T10:16:19;7.05;;;5.25;;
81523;SDS011;70954;49.500;10.416;2023-08-30T10:18:47;5.05;;;4.55;;
81523;SDS011;70954;49.500;10.416;2023-08-30T10:21:17;5.25;;;4.65;;
81523;SDS011;70954;49.500;10.416;2023-08-30T10:23:44;5.30;;;4.55;;
81523;SDS011;70954;49.500;10.416;2023-08-30T10:28:38;5.32;;;4.20;;
81523;SDS011;70954;49.500;10.416;2023-08-30T10:31:06;5.07;;;4.57;;
81523;SDS011;70954;49.500;10.416;2023-08-30T10:33:32;4.25;;;3.85;;
81523;SDS011;70954;49.500;10.416;2023-08-30T10:36:06;4.53;;;4.13;;
81523;SDS011;70954;49.500;10.416;2023-08-30T10:38:32;4.97;;;4.28;;
81523;SDS011;70954;49.500;10.416;2023-08-30T10:41:07;4.18;;;3.78;;
81523;SDS011;70954;49.500;10.416;2023-08-30T10:43:34;3.33;;;3.03;;
81523;SDS011;70954;49.500;10.416;2023-08-30T10:46:01;4.47;;;4.07;;
81523;SDS011;70954;49.500;10.416;2023-08-30T10:48:37;4.20;;;3.80;;
81523;SDS011;70954;49.500;10.416;2023-08-30T10:51:05;4.07;;;3.28;;
81523;SDS011;70954;49.500;10.416;2023-08-30T10:53:54;3.17;;;2.88;;
81523;SDS011;70954;49.500;10.416;2023-08-30T10:56:29;3.88;;;3.47;;
81523;SDS011;70954;49.500;10.416;2023-08-30T10:58:55;3.38;;;3.05;;
81523;SDS011;70954;49.500;10.416;2023-08-30T11:01:20;3.38;;;3.08;;
81523;SDS011;70954;49.500;10.416;2023-08-30T11:03:47;3.25;;;2.95;;
81523;SDS011;70954;49.500;10.416;2023-08-30T11:06:15;4.07;;;2.75;;
81523;SDS011;70954;49.500;10.416;2023-08-30T11:08:41;3.20;;;2.90;;
81523;SDS011;70954;49.500;10.416;2023-08-30T11:11:07;3.83;;;3.33;;
81523;SDS011;70954;49.500;10.416;2023-08-30T11:13:32;3.58;;;3.03;;
81523;SDS011;70954;49.500;10.416;2023-08-30T11:16:01;3.67;;;3.33;;
81523;SDS011;70954;49.500;10.416;2023-08-30T11:18:27;3.55;;;3.25;;
81523;SDS011;70954;49.500;10.416;2023-08-30T11:20:53;3.72;;;3.25;;
81523;SDS011;70954;49.500;10.416;2023-08-30T11:23:24;4.30;;;3.53;;
81523;SDS011;70954;49.500;10.416;2023-08-30T11:25:50;4.20;;;3.83;;
81523;SDS011;70954;49.500;10.416;2023-08-30T11:28:21;3.72;;;3.33;;
81523;SDS011;70954;49.500;10.416;2023-08-30T11:30:50;3.85;;;3.10;;
81523;SDS011;70954;49.500;10.416;2023-08-30T11:33:18;3.30;;;3.00;;
81523;SDS011;70954;49.500;10.416;2023-08-30T11:35:43;3.72;;;3.42;;
81523;SDS011;70954;49.500;10.416;2023-08-30T11:38:09;2.67;;;2.47;;
81523;SDS011;70954;49.500;10.416;2023-08-30T11:40:35;4.32;;;2.90;;
81523;SDS011;70954;49.500;10.416;2023-08-30T11:43:01;3.25;;;2.60;;
81523;SDS011;70954;49.500;10.416;2023-08-30T11:45:27;3.25;;;2.90;;
81523;SDS011;70954;49.500;10.416;2023-08-30T11:47:56;2.90;;;2.65;;
81523;SDS011;70954;49.500;10.416;2023-08-30T11:50:23;3.10;;;2.53;;
81523;SDS011;70954;49.500;10.416;2023-08-30T11:52:49;4.60;;;2.80;;
81523;SDS011;70954;49.500;10.416;2023-08-30T11:55:14;3.00;;;2.70;;
81523;SDS011;70954;49.500;10.416;2023-08-30T11:57:42;2.50;;;2.30;;
81523;SDS011;70954;49.500;10.416;2023-08-30T12:00:09;3.25;;;2.20;;
81523;SDS011;70954;49.500;10.416;2023-08-30T12:02:35;2.60;;;2.40;;
81523;SDS011;70954;49.500;10.416;2023-08-30T12:05:01;2.70;;;2.42;;
81523;SDS011;70954;49.500;10.416;2023-08-30T12:07:26;2.85;;;2.58;;
81523;SDS011;70954;49.500;10.416;2023-08-30T12:09:52;3.05;;;2.42;;
81523;SDS011;70954;49.500;10.416;2023-08-30T12:12:17;2.75;;;2.38;;
81523;SDS011;70954;49.500;10.416;2023-08-30T12:14:43;3.45;;;2.60;;
81523;SDS011;70954;49.500;10.416;2023-08-30T12:17:08;3.40;;;1.80;;
81523;SDS011;70954;49.500;10.416;2023-08-30T12:19:34;2.53;;;2.33;;
81523;SDS011;70954;49.500;10.416;2023-08-30T12:22:03;2.40;;;2.20;;
81523;SDS011;70954;49.500;10.416;2023-08-30T12:24:39;2.10;;;1.90;;
81523;SDS011;70954;49.500;10.416;2023-08-30T12:27:11;2.20;;;1.92;;
81523;SDS011;70954;49.500;10.416;2023-08-30T12:29:37;2.22;;;1.85;;
81523;SDS011;70954;49.500;10.416;2023-08-30T12:32:02;1.92;;;1.77;;
81523;SDS011;70954;49.500;10.416;2023-08-30T12:34:28;1.50;;;1.38;;
81523;SDS011;70954;49.500;10.416;2023-08-30T12:36:53;1.60;;;1.50;;
81523;SDS011;70954;49.500;10.416;2023-08-30T12:39:19;2.58;;;1.60;;
81523;SDS011;70954;49.500;10.416;2023-08-30T12:41:44;24.35;;;4.00;;
81523;SDS011;70954;49.500;10.416;2023-08-30T12:44:10;28.48;;;5.35;;
81523;SDS011;70954;49.500;10.416;2023-08-30T12:46:35;1.98;;;1.70;;
81523;SDS011;70954;49.500;10.416;2023-08-30T12:49:01;1.50;;;1.40;;
81523;SDS011;70954;49.500;10.416;2023-08-30T12:51:26;2.22;;;1.60;;
81523;SDS011;70954;49.500;10.416;2023-08-30T12:53:52;1.52;;;1.30;;
81523;SDS011;70954;49.500;10.416;2023-08-30T12:56:17;1.40;;;1.30;;
81523;SDS011;70954;49.500;10.416;2023-08-30T12:58:42;1.58;;;1.48;;
81523;SDS011;70954;49.500;10.416;2023-08-30T13:01:08;1.77;;;1.50;;
81523;SDS011;70954;49.500;10.416;2023-08-30T13:03:33;1.98;;;1.42;;
81523;SDS011;70954;49.500;10.416;2023-08-30T13:05:59;2.03;;;1.65;;
81523;SDS011;70954;49.500;10.416;2023-08-30T13:08:24;3.35;;;1.30;;
81523;SDS011;70954;49.500;10.416;2023-08-30T13:10:50;1.50;;;1.40;;
81523;SDS011;70954;49.500;10.416;2023-08-30T13:13:15;1.63;;;1.50;;
81523;SDS011;70954;49.500;10.416;2023-08-30T13:15:40;1.50;;;1.40;;
81523;SDS011;70954;49.500;10.416;2023-08-30T13:18:07;1.50;;;1.30;;
81523;SDS011;70954;49.500;10.416;2023-08-30T13:20:32;2.15;;;1.40;;
81523;SDS011;70954;49.500;10.416;2023-08-30T13:23:02;1.15;;;1.02;;
81523;SDS011;70954;49.500;10.416;2023-08-30T13:25:27;1.40;;;1.30;;
81523;SDS011;70954;49.500;10.416;2023-08-30T13:27:53;1.63;;;1.40;;
81523;SDS011;70954;49.500;10.416;2023-08-30T13:30:18;2.28;;;1.48;;
81523;SDS011;70954;49.500;10.416;2023-08-30T13:32:44;1.50;;;1.40;;
81523;SDS011;70954;49.500;10.416;2023-08-30T13:35:09;2.22;;;1.70;;
81523;SDS011;70954;49.500;10.416;2023-08-30T13:37:34;1.50;;;1.40;;
81523;SDS011;70954;49.500;10.416;2023-08-30T13:40:00;1.67;;;1.50;;
81523;SDS011;70954;49.500;10.416;2023-08-30T13:42:25;1.70;;;1.60;;
81523;SDS011;70954;49.500;10.416;2023-08-30T13:44:51;2.00;;;1.80;;
81523;SDS011;70954;49.500;10.416;2023-08-30T13:47:16;2.30;;;1.60;;
81523;SDS011;70954;49.500;10.416;2023-08-30T13:49:42;1.73;;;1.63;;
81523;SDS011;70954;49.500;10.416;2023-08-30T13:52:07;2.00;;;1.65;;
81523;SDS011;70954;49.500;10.416;2023-08-30T13:54:33;1.90;;;1.60;;
81523;SDS011;70954;49.500;10.416;2023-08-30T13:56:58;1.90;;;1.70;;
81523;SDS011;70954;49.500;10.416;2023-08-30T13:59:24;1.85;;;1.45;;
81523;SDS011;70954;49.500;10.416;2023-08-30T14:01:49;2.25;;;1.48;;
81523;SDS011;70954;49.500;10.416;2023-08-30T14:04:15;2.10;;;1.90;;
81523;SDS011;70954;49.500;10.416;2023-08-30T14:06:40;1.63;;;1.52;;
81523;SDS011;70954;49.500;10.416;2023-08-30T14:09:06;2.40;;;1.48;;
81523;SDS011;70954;49.500;10.416;2023-08-30T14:11:31;1.67;;;1.55;;
81523;SDS011;70954;49.500;10.416;2023-08-30T14:13:56;2.05;;;1.50;;
81523;SDS011;70954;49.500;10.416;2023-08-30T14:16:22;1.83;;;1.45;;
81523;SDS011;70954;49.500;10.416;2023-08-30T14:18:47;1.65;;;1.55;;
81523;SDS011;70954;49.500;10.416;2023-08-30T14:21:13;1.60;;;1.48;;
81523;SDS011;70954;49.500;10.416;2023-08-30T14:23:38;1.40;;;1.30;;
81523;SDS011;70954;49.500;10.416;2023-08-30T14:26:04;1.60;;;1.50;;
81523;SDS011;70954;49.500;10.416;2023-08-30T14:28:31;1.92;;;1.42;;
81523;SDS011;70954;49.500;10.416;2023-08-30T14:30:56;1.80;;;1.70;;
81523;SDS011;70954;49.500;10.416;2023-08-30T14:33:22;1.30;;;1.20;;
81523;SDS011;70954;49.500;10.416;2023-08-30T14:35:47;1.77;;;1.40;;